Time;durP1;ratioP1;P1;durP2;ratioP2;P2;SDS_P1;SDS_P2;PMS_P1;PMS_P2;Temp;Humidity;BMP_temperature;BMP_pressure;BME280_temperature;BME280_humidity;BME280_pressure;Samples;Min_cycle;Max_cycle;Signal;HPM_P1;HPM_P2
2021/06/08 00:00:23;;;;;;;2.50;0.93;;;;;;;;;;5071281;28;20033;-82
2021/06/08 00:02:51;;;;;;;1.75;1.00;;;;;;;;;;5073031;28;20049;-82
2021/06/08 00:05:21;;;;;;;1.95;1.00;;;;;;;;;;5065626;28;20536;-82
2021/06/08 00:07:48;;;;;;;1.88;1.02;;;;;;;;;;5045498;28;20071;-82
2021/06/08 00:10:18;;;;;;;1.20;1.20;;;;;;;;;;5047313;28;20392;-82
2021/06/08 00:12:45;;;;;;;2.35;1.17;;;;;;;;;;5032261;28;20032;-81
2021/06/08 00:15:13;;;;;;;1.70;1.00;;;;;;;;;;5052522;28;20110;-81
2021/06/08 00:17:40;;;;;;;1.00;1.00;;;;;;;;;;5047351;28;20398;-81
2021/06/08 00:20:07;;;;;;;4.88;1.00;;;;;;;;;;5041826;28;20049;-81
2021/06/08 00:22:34;;;;;;;1.13;1.00;;;;;;;;;;5055384;28;20052;-81
2021/06/08 00:25:02;;;;;;;0.90;0.90;;;;;;;;;;5051518;28;20045;-81
2021/06/08 00:27:29;;;;;;;0.95;0.95;;;;;;;;;;5021629;28;20095;-81
2021/06/08 00:29:56;;;;;;;5.65;2.08;;;;;;;;;;5050101;28;20049;-81
2021/06/08 00:32:24;;;;;;;6.53;0.90;;;;;;;;;;5057806;28;20134;-81
2021/06/08 00:34:51;;;;;;;1.65;1.00;;;;;;;;;;5039726;28;20132;-81
2021/06/08 00:37:18;;;;;;;0.90;0.90;;;;;;;;;;5068525;28;20044;-81
2021/06/08 00:39:45;;;;;;;3.53;1.08;;;;;;;;;;5065447;28;20036;-81
2021/06/08 00:42:13;;;;;;;3.90;0.90;;;;;;;;;;5097210;28;20095;-82
2021/06/08 00:44:40;;;;;;;4.38;1.15;;;;;;;;;;5062537;28;20051;-81
2021/06/08 00:47:09;;;;;;;1.77;1.67;;;;;;;;;;5072045;28;20041;-81
2021/06/08 00:49:36;;;;;;;1.02;1.00;;;;;;;;;;5068927;28;20053;-81
2021/06/08 00:52:03;;;;;;;4.18;1.00;;;;;;;;;;5058097;28;20033;-82
2021/06/08 00:54:30;;;;;;;2.15;1.10;;;;;;;;;;5098317;28;20070;-82
2021/06/08 00:56:58;;;;;;;1.17;1.00;;;;;;;;;;5063431;28;20429;-82
2021/06/08 00:59:25;;;;;;;2.58;0.90;;;;;;;;;;5070445;28;20055;-82
2021/06/08 01:01:52;;;;;;;1.05;1.00;;;;;;;;;;5070039;28;20036;-82
2021/06/08 01:04:19;;;;;;;1.15;1.00;;;;;;;;;;5104403;28;20041;-82
2021/06/08 01:06:48;;;;;;;1.63;1.00;;;;;;;;;;5070569;28;20109;-82
2021/06/08 01:09:15;;;;;;;0.90;0.90;;;;;;;;;;5068086;28;20043;-81
2021/06/08 01:11:42;;;;;;;3.30;1.10;;;;;;;;;;5042450;28;20033;-81
2021/06/08 01:14:09;;;;;;;2.75;0.90;;;;;;;;;;5069215;28;20082;-82
2021/06/08 01:16:36;;;;;;;1.00;1.00;;;;;;;;;;5068324;28;20359;-82
2021/06/08 01:19:03;;;;;;;1.63;0.90;;;;;;;;;;5069669;28;20056;-82
2021/06/08 01:21:31;;;;;;;2.15;1.00;;;;;;;;;;5068959;28;20036;-82
2021/06/08 01:23:58;;;;;;;1.98;0.90;;;;;;;;;;5069640;28;20063;-82
2021/06/08 01:26:26;;;;;;;1.00;1.00;;;;;;;;;;5071914;28;20440;-82
2021/06/08 01:29:03;;;;;;;2.35;0.95;;;;;;;;;;5071785;28;20036;-82
2021/06/08 01:31:30;;;;;;;1.10;1.00;;;;;;;;;;5086771;28;20055;-82
2021/06/08 01:33:57;;;;;;;1.10;1.00;;;;;;;;;;5048683;28;20123;-82
2021/06/08 01:36:26;;;;;;;2.90;1.00;;;;;;;;;;5055154;28;20052;-82
2021/06/08 01:38:53;;;;;;;1.15;1.00;;;;;;;;;;5072090;28;20486;-82
2021/06/08 01:41:21;;;;;;;1.02;1.00;;;;;;;;;;5066612;28;20059;-82
2021/06/08 01:43:49;;;;;;;1.67;1.10;;;;;;;;;;5072016;28;20048;-82
2021/06/08 01:46:16;;;;;;;2.55;1.05;;;;;;;;;;5070015;28;20531;-82
2021/06/08 01:48:43;;;;;;;1.45;1.00;;;;;;;;;;5072579;28;20079;-82
2021/06/08 01:51:16;;;;;;;1.48;1.00;;;;;;;;;;5070755;28;20083;-81
2021/06/08 01:53:47;;;;;;;2.90;1.40;;;;;;;;;;5068739;28;20036;-81
2021/06/08 01:56:16;;;;;;;6.40;1.60;;;;;;;;;;5076959;28;20037;-81
2021/06/08 01:58:43;;;;;;;3.05;1.30;;;;;;;;;;5063932;28;20040;-82
2021/06/08 02:01:21;;;;;;;1.77;1.10;;;;;;;;;;5071274;28;20093;-82
2021/06/08 02:04:14;;;;;;;3.30;1.30;;;;;;;;;;5071354;28;20069;-82
2021/06/08 02:07:00;;;;;;;5.93;1.20;;;;;;;;;;5098071;28;20064;-82
2021/06/08 02:09:33;;;;;;;4.82;1.17;;;;;;;;;;5069996;28;20037;-82
2021/06/08 02:12:02;;;;;;;2.58;1.13;;;;;;;;;;5063694;28;20045;-82
2021/06/08 02:14:40;;;;;;;2.25;1.17;;;;;;;;;;5068279;28;20037;-81
2021/06/08 02:17:17;;;;;;;1.13;1.13;;;;;;;;;;5089294;28;20041;-81
2021/06/08 02:19:47;;;;;;;1.00;1.00;;;;;;;;;;5070668;28;20055;-82
2021/06/08 02:22:14;;;;;;;3.53;1.10;;;;;;;;;;5072490;28;20052;-81
2021/06/08 02:24:43;;;;;;;2.45;1.42;;;;;;;;;;5073609;28;20387;-81
2021/06/08 02:27:11;;;;;;;2.78;1.83;;;;;;;;;;5072319;28;20040;-82
2021/06/08 02:29:38;;;;;;;1.50;1.40;;;;;;;;;;5072862;28;20037;-82
2021/06/08 02:32:06;;;;;;;3.85;1.42;;;;;;;;;;5075154;28;20114;-82
2021/06/08 02:34:33;;;;;;;1.80;1.10;;;;;;;;;;5075029;28;20719;-82
2021/06/08 02:37:01;;;;;;;1.02;1.02;;;;;;;;;;5075202;28;20496;-82
2021/06/08 02:39:28;;;;;;;1.45;1.20;;;;;;;;;;5073941;28;20051;-82
2021/06/08 02:41:56;;;;;;;3.47;1.20;;;;;;;;;;5065084;28;20055;-82
2021/06/08 02:44:23;;;;;;;2.35;1.52;;;;;;;;;;5060654;28;20705;-82
2021/06/08 02:46:50;;;;;;;1.30;1.30;;;;;;;;;;5074244;28;20291;-82
2021/06/08 02:49:21;;;;;;;1.20;1.20;;;;;;;;;;5074067;28;20607;-82
2021/06/08 02:51:47;;;;;;;1.13;1.00;;;;;;;;;;5059895;28;20045;-82
2021/06/08 02:54:15;;;;;;;1.10;1.10;;;;;;;;;;5082452;28;20049;-81
2021/06/08 02:56:42;;;;;;;4.68;1.58;;;;;;;;;;5073380;28;20123;-81
2021/06/08 02:59:09;;;;;;;1.17;1.00;;;;;;;;;;5102093;28;20045;-81
2021/06/08 03:01:40;;;;;;;1.35;1.10;;;;;;;;;;5066948;28;20066;-81
2021/06/08 03:04:07;;;;;;;1.45;1.20;;;;;;;;;;5073400;28;20037;-82
2021/06/08 03:06:42;;;;;;;1.20;1.10;;;;;;;;;;5102949;28;20052;-82
2021/06/08 03:09:11;;;;;;;1.17;1.17;;;;;;;;;;5106355;28;20047;-82
2021/06/08 03:11:40;;;;;;;2.85;1.10;;;;;;;;;;5072645;28;20037;-82
2021/06/08 03:14:08;;;;;;;2.53;1.30;;;;;;;;;;5072551;28;20488;-82
2021/06/08 03:16:37;;;;;;;3.75;1.30;;;;;;;;;;5057306;28;20044;-82
2021/06/08 03:19:05;;;;;;;1.70;1.10;;;;;;;;;;5071370;28;20608;-82
2021/06/08 03:21:34;;;;;;;1.98;1.20;;;;;;;;;;5073278;28;20040;-82
2021/06/08 03:24:03;;;;;;;2.70;1.13;;;;;;;;;;5073368;28;20618;-82
2021/06/08 03:26:34;;;;;;;1.95;1.00;;;;;;;;;;5068677;28;20044;-82
2021/06/08 03:29:02;;;;;;;6.03;2.45;;;;;;;;;;5066416;28;20048;-82
2021/06/08 03:31:29;;;;;;;3.53;1.17;;;;;;;;;;5073687;28;20048;-82
2021/06/08 03:33:56;;;;;;;1.58;1.20;;;;;;;;;;5102871;28;20047;-82
2021/06/08 03:36:26;;;;;;;1.65;1.20;;;;;;;;;;5074181;28;20416;-82
2021/06/08 03:38:53;;;;;;;2.35;1.20;;;;;;;;;;5073280;28;20094;-82
2021/06/08 03:41:21;;;;;;;3.53;1.40;;;;;;;;;;5073238;28;20037;-82
2021/06/08 03:43:49;;;;;;;1.38;1.38;;;;;;;;;;5066048;28;20035;-82
2021/06/08 03:46:16;;;;;;;5.55;1.38;;;;;;;;;;5072917;28;20130;-82
2021/06/08 03:48:43;;;;;;;3.58;1.60;;;;;;;;;;5057322;28;20037;-82
2021/06/08 03:51:10;;;;;;;2.60;1.40;;;;;;;;;;5071800;28;20032;-82
2021/06/08 03:53:38;;;;;;;4.30;1.38;;;;;;;;;;5072743;28;20082;-82
2021/06/08 03:56:05;;;;;;;1.92;1.20;;;;;;;;;;5072403;28;20070;-82
2021/06/08 03:58:32;;;;;;;6.18;1.58;;;;;;;;;;5070510;28;20086;-82
2021/06/08 04:01:01;;;;;;;3.42;2.10;;;;;;;;;;5047813;28;20041;-82
2021/06/08 04:03:28;;;;;;;2.40;1.30;;;;;;;;;;5071032;28;20040;-82
2021/06/08 04:05:54;;;;;;;1.63;1.30;;;;;;;;;;5070491;28;20457;-82
2021/06/08 04:08:22;;;;;;;1.75;1.65;;;;;;;;;;5070862;28;20056;-82
2021/06/08 04:10:50;;;;;;;2.15;1.20;;;;;;;;;;5070292;28;20513;-82
2021/06/08 04:13:17;;;;;;;2.03;1.30;;;;;;;;;;5063696;28;20070;-82
2021/06/08 04:15:44;;;;;;;2.67;1.38;;;;;;;;;;5100402;28;20048;-82
2021/06/08 04:18:11;;;;;;;5.68;1.75;;;;;;;;;;5057924;28;20041;-82
2021/06/08 04:20:38;;;;;;;6.15;1.65;;;;;;;;;;5070658;28;20033;-82
2021/06/08 04:23:05;;;;;;;3.42;1.50;;;;;;;;;;5070910;28;20047;-82
2021/06/08 04:25:32;;;;;;;1.90;1.20;;;;;;;;;;5068538;28;20040;-82
2021/06/08 04:27:58;;;;;;;1.58;1.30;;;;;;;;;;5047364;28;20044;-82
2021/06/08 04:30:25;;;;;;;3.25;1.40;;;;;;;;;;5070360;28;20397;-82
2021/06/08 04:32:52;;;;;;;2.97;1.10;;;;;;;;;;5071562;28;20078;-82
2021/06/08 04:35:19;;;;;;;1.25;1.25;;;;;;;;;;5073018;28;20420;-82
2021/06/08 04:37:46;;;;;;;2.85;1.40;;;;;;;;;;5071902;28;20039;-82
2021/06/08 04:40:15;;;;;;;4.90;1.40;;;;;;;;;;5070789;28;20048;-82
2021/06/08 04:42:43;;;;;;;1.65;1.17;;;;;;;;;;5070998;28;20090;-82
2021/06/08 04:45:11;;;;;;;8.02;1.45;;;;;;;;;;5071267;28;20048;-82
2021/06/08 04:47:38;;;;;;;3.40;1.50;;;;;;;;;;5071927;28;20094;-82
2021/06/08 04:50:06;;;;;;;2.17;1.48;;;;;;;;;;5070647;28;20106;-82
2021/06/08 04:52:33;;;;;;;2.38;1.50;;;;;;;;;;5071942;28;20043;-81
2021/06/08 04:55:01;;;;;;;2.17;1.70;;;;;;;;;;5072176;28;20045;-81
2021/06/08 04:57:28;;;;;;;2.22;2.03;;;;;;;;;;5071680;28;20039;-81
2021/06/08 05:00:12;;;;;;;2.83;1.80;;;;;;;;;;5072505;28;20036;-81
2021/06/08 05:02:43;;;;;;;2.28;1.75;;;;;;;;;;5062377;28;20036;-81
2021/06/08 05:05:13;;;;;;;5.32;1.60;;;;;;;;;;5071988;28;20044;-81
2021/06/08 05:07:42;;;;;;;4.15;1.27;;;;;;;;;;5070690;28;20048;-81
2021/06/08 05:10:11;;;;;;;4.60;1.30;;;;;;;;;;5070599;28;20052;-81
2021/06/08 05:12:40;;;;;;;2.85;1.73;;;;;;;;;;5072922;28;20045;-81
2021/06/08 05:15:07;;;;;;;3.08;1.23;;;;;;;;;;5071767;28;20511;-82
2021/06/08 05:17:35;;;;;;;8.38;3.00;;;;;;;;;;5071350;28;20087;-82
2021/06/08 05:20:01;;;;;;;6.00;2.60;;;;;;;;;;5062830;28;20047;-82
2021/06/08 05:22:29;;;;;;;1.73;1.63;;;;;;;;;;5069059;28;20045;-82
2021/06/08 05:24:56;;;;;;;3.25;1.50;;;;;;;;;;5069998;28;20044;-82
2021/06/08 05:27:23;;;;;;;3.80;1.48;;;;;;;;;;5067556;28;20051;-82
2021/06/08 05:29:53;;;;;;;1.45;1.35;;;;;;;;;;5066831;28;20044;-82
2021/06/08 05:32:20;;;;;;;1.98;1.38;;;;;;;;;;5065597;28;20102;-82
2021/06/08 05:34:47;;;;;;;5.97;1.30;;;;;;;;;;5066670;28;20053;-82
2021/06/08 05:37:15;;;;;;;1.63;1.20;;;;;;;;;;5066937;28;20041;-82
2021/06/08 05:39:43;;;;;;;2.70;1.35;;;;;;;;;;5065421;28;20470;-82
2021/06/08 05:42:15;;;;;;;2.97;1.15;;;;;;;;;;5062514;28;20086;-82
2021/06/08 05:44:41;;;;;;;5.32;1.40;;;;;;;;;;5082900;28;20052;-82
2021/06/08 05:47:10;;;;;;;4.28;1.60;;;;;;;;;;5041585;28;20059;-82
2021/06/08 05:49:38;;;;;;;3.92;1.33;;;;;;;;;;5067204;28;20600;-82
2021/06/08 05:52:05;;;;;;;1.88;1.20;;;;;;;;;;5066794;28;20056;-82
2021/06/08 05:54:32;;;;;;;1.40;1.00;;;;;;;;;;5071295;28;20107;-82
2021/06/08 05:57:00;;;;;;;1.40;1.30;;;;;;;;;;5062665;28;20096;-82
2021/06/08 05:59:27;;;;;;;1.30;1.20;;;;;;;;;;5053547;28;20044;-82
2021/06/08 06:01:54;;;;;;;4.68;1.92;;;;;;;;;;5053837;28;20130;-82
2021/06/08 06:04:24;;;;;;;2.40;1.90;;;;;;;;;;5055358;28;20057;-81
2021/06/08 06:06:51;;;;;;;3.50;1.20;;;;;;;;;;5070035;28;20132;-81
2021/06/08 06:09:22;;;;;;;4.50;1.30;;;;;;;;;;5073996;28;20036;-81
2021/06/08 06:11:51;;;;;;;1.88;1.60;;;;;;;;;;5072911;28;20106;-81
2021/06/08 06:14:22;;;;;;;3.35;1.40;;;;;;;;;;5060887;28;20563;-81
2021/06/08 06:16:52;;;;;;;4.97;1.35;;;;;;;;;;5070736;28;20107;-81
2021/06/08 06:19:26;;;;;;;2.58;1.65;;;;;;;;;;5070432;28;20037;-81
2021/06/08 06:21:54;;;;;;;8.50;1.33;;;;;;;;;;5072694;28;20098;-81
2021/06/08 06:24:21;;;;;;;5.82;1.55;;;;;;;;;;5071304;28;20036;-81
2021/06/08 06:26:48;;;;;;;1.40;1.30;;;;;;;;;;5104378;28;20071;-81
2021/06/08 06:29:16;;;;;;;2.97;1.13;;;;;;;;;;5071893;28;20453;-82
2021/06/08 06:31:44;;;;;;;5.22;1.20;;;;;;;;;;5070424;28;20044;-82
2021/06/08 06:34:15;;;;;;;2.22;1.25;;;;;;;;;;5072322;28;20028;-82
2021/06/08 06:36:43;;;;;;;2.15;1.25;;;;;;;;;;5070982;28;20095;-82
2021/06/08 06:39:13;;;;;;;3.53;1.10;;;;;;;;;;5071119;28;20047;-82
2021/06/08 06:41:42;;;;;;;11.73;2.75;;;;;;;;;;5070900;28;20048;-82
2021/06/08 06:44:09;;;;;;;1.83;1.48;;;;;;;;;;5071529;28;20049;-81
2021/06/08 06:46:36;;;;;;;1.58;1.27;;;;;;;;;;5070567;28;20040;-81
2021/06/08 06:49:05;;;;;;;2.45;1.13;;;;;;;;;;5066915;28;20043;-81
2021/06/08 06:51:33;;;;;;;3.58;1.33;;;;;;;;;;5060834;28;20126;-82
2021/06/08 06:54:00;;;;;;;2.28;1.13;;;;;;;;;;5060892;28;20033;-82
2021/06/08 06:56:27;;;;;;;7.05;1.20;;;;;;;;;;5066750;28;20081;-82
2021/06/08 06:58:56;;;;;;;1.25;1.13;;;;;;;;;;5086203;28;20044;-82
2021/06/08 07:01:26;;;;;;;2.90;1.20;;;;;;;;;;5054550;28;20405;-82
2021/06/08 07:03:54;;;;;;;3.67;1.15;;;;;;;;;;5069609;28;20042;-81
2021/06/08 07:06:22;;;;;;;6.32;2.65;;;;;;;;;;5071997;28;20041;-81
2021/06/08 07:08:50;;;;;;;1.10;1.00;;;;;;;;;;5070512;28;20056;-82
2021/06/08 07:11:18;;;;;;;1.45;1.00;;;;;;;;;;5070424;28;20048;-82
2021/06/08 07:13:45;;;;;;;3.38;1.60;;;;;;;;;;5072145;28;20375;-81
2021/06/08 07:16:15;;;;;;;2.75;1.33;;;;;;;;;;5070464;28;20036;-82
2021/06/08 07:18:48;;;;;;;1.75;1.00;;;;;;;;;;5071346;28;20053;-82
2021/06/08 07:21:52;;;;;;;2.33;1.65;;;;;;;;;;5071768;28;20086;-82
2021/06/08 07:24:34;;;;;;;2.10;1.20;;;;;;;;;;5068672;28;20047;-81
2021/06/08 07:27:04;;;;;;;5.60;1.20;;;;;;;;;;5035871;28;20456;-81
2021/06/08 07:29:35;;;;;;;3.80;1.23;;;;;;;;;;5070580;28;20486;-81
2021/06/08 07:32:09;;;;;;;1.13;1.00;;;;;;;;;;5069665;28;20048;-82
2021/06/08 07:34:48;;;;;;;2.15;1.00;;;;;;;;;;5070302;28;20040;-82
2021/06/08 07:37:18;;;;;;;4.32;1.80;;;;;;;;;;5083355;28;20105;-82
2021/06/08 07:40:01;;;;;;;1.48;1.10;;;;;;;;;;5049599;28;20048;-82
2021/06/08 07:42:53;;;;;;;1.88;1.20;;;;;;;;;;5070680;28;20036;-82
2021/06/08 07:45:31;;;;;;;1.00;1.00;;;;;;;;;;5030411;28;20080;-82
2021/06/08 07:48:04;;;;;;;4.53;1.10;;;;;;;;;;5063620;28;20055;-82
2021/06/08 07:50:33;;;;;;;1.90;1.00;;;;;;;;;;5031102;28;20048;-82
2021/06/08 07:53:03;;;;;;;4.30;1.30;;;;;;;;;;5018971;28;20051;-82
2021/06/08 07:55:35;;;;;;;1.10;1.00;;;;;;;;;;5008529;28;20104;-82
2021/06/08 07:58:13;;;;;;;3.08;1.20;;;;;;;;;;5012389;28;20062;-82
2021/06/08 08:00:44;;;;;;;2.10;1.10;;;;;;;;;;4987517;28;20483;-82
2021/06/08 08:03:34;;;;;;;3.80;1.10;;;;;;;;;;5008695;28;20053;-82
2021/06/08 08:06:03;;;;;;;2.22;1.00;;;;;;;;;;4989618;28;20046;-82
2021/06/08 08:08:39;;;;;;;2.25;1.55;;;;;;;;;;4984921;28;20510;-82
2021/06/08 08:11:28;;;;;;;1.10;1.00;;;;;;;;;;4991477;28;20101;-82
2021/06/08 08:13:56;;;;;;;2.05;1.30;;;;;;;;;;4958838;28;20055;-82
2021/06/08 08:16:24;;;;;;;1.38;1.10;;;;;;;;;;5008889;28;20041;-82
2021/06/08 08:18:53;;;;;;;2.45;1.02;;;;;;;;;;5017406;28;20526;-82
2021/06/08 08:21:26;;;;;;;2.45;1.17;;;;;;;;;;5022743;28;20049;-82
2021/06/08 08:23:55;;;;;;;1.40;1.02;;;;;;;;;;5012830;28;20128;-82
2021/06/08 08:26:30;;;;;;;1.75;1.33;;;;;;;;;;5008960;28;20058;-82
2021/06/08 08:29:04;;;;;;;4.50;1.52;;;;;;;;;;5025580;28;20458;-82
2021/06/08 08:31:37;;;;;;;3.35;1.30;;;;;;;;;;5022096;28;20044;-82
2021/06/08 08:34:11;;;;;;;1.00;1.00;;;;;;;;;;5059611;28;20102;-82
2021/06/08 08:37:02;;;;;;;2.08;1.05;;;;;;;;;;5073073;28;20656;-82
2021/06/08 08:39:30;;;;;;;0.90;0.90;;;;;;;;;;5047525;28;20060;-82
2021/06/08 08:42:22;;;;;;;1.17;1.00;;;;;;;;;;5065787;28;20086;-82
2021/06/08 08:45:22;;;;;;;;;;;;;;;;;;5045447;28;20053;-82
2021/06/08 08:47:55;;;;;;;2.10;1.00;;;;;;;;;;5051123;28;19924;-82
2021/06/08 08:50:26;;;;;;;1.95;0.90;;;;;;;;;;5019001;28;20483;-82
2021/06/08 08:53:06;;;;;;;1.40;0.90;;;;;;;;;;5022248;28;20071;-82
2021/06/08 08:55:46;;;;;;;3.35;0.90;;;;;;;;;;5043499;28;20483;-82
2021/06/08 08:58:19;;;;;;;3.13;1.23;;;;;;;;;;5040057;28;20053;-82
2021/06/08 09:01:04;;;;;;;1.42;0.85;;;;;;;;;;5027875;28;20045;-82
2021/06/08 09:03:53;;;;;;;0.95;0.80;;;;;;;;;;5018279;28;20053;-82
2021/06/08 09:06:20;;;;;;;0.95;0.80;;;;;;;;;;5016189;28;20058;-82
2021/06/08 09:08:53;;;;;;;3.95;0.80;;;;;;;;;;4980900;28;20073;-82
2021/06/08 09:11:23;;;;;;;2.05;1.35;;;;;;;;;;4991130;28;20054;-82
2021/06/08 09:13:51;;;;;;;1.33;0.90;;;;;;;;;;5005161;28;20443;-82
2021/06/08 09:16:30;;;;;;;1.60;0.90;;;;;;;;;;5020055;28;20053;-82
2021/06/08 09:19:04;;;;;;;1.20;1.20;;;;;;;;;;5020141;28;20436;-82
2021/06/08 09:21:53;;;;;;;1.27;0.90;;;;;;;;;;5010751;28;20482;-82
2021/06/08 09:24:22;;;;;;;0.82;0.80;;;;;;;;;;4992760;28;20050;-82
2021/06/08 09:27:14;;;;;;;2.85;1.20;;;;;;;;;;5008074;28;20826;-82
2021/06/08 09:29:46;;;;;;;1.13;1.02;;;;;;;;;;5009971;28;20041;-82
2021/06/08 09:32:27;;;;;;;1.15;1.00;;;;;;;;;;5013830;28;20069;-82
2021/06/08 09:35:06;;;;;;;0.90;0.90;;;;;;;;;;5029196;28;20069;-82
2021/06/08 09:37:46;;;;;;;0.90;0.90;;;;;;;;;;5024241;28;20050;-82
2021/06/08 09:40:27;;;;;;;0.88;0.80;;;;;;;;;;5018824;28;20481;-83
2021/06/08 09:43:11;;;;;;;6.80;0.90;;;;;;;;;;4999105;28;20045;-82
2021/06/08 09:45:44;;;;;;;2.25;1.23;;;;;;;;;;5039874;28;20061;-82
2021/06/08 09:48:20;;;;;;;1.65;1.00;;;;;;;;;;5004439;28;24126;-82
2021/06/08 09:50:55;;;;;;;2.60;0.80;;;;;;;;;;5017057;28;20049;-82
2021/06/08 09:53:33;;;;;;;0.80;0.80;;;;;;;;;;5032737;28;20045;-82
2021/06/08 09:56:07;;;;;;;0.90;0.80;;;;;;;;;;5053867;28;20049;-82
2021/06/08 09:58:39;;;;;;;0.93;0.80;;;;;;;;;;5043415;28;20038;-82
2021/06/08 10:01:12;;;;;;;1.42;0.90;;;;;;;;;;5056006;28;20106;-82
2021/06/08 10:03:39;;;;;;;;;;;;;;;;;;5051847;28;20065;-82
2021/06/08 10:06:30;;;;;;;3.97;0.90;;;;;;;;;;5049549;28;19921;-82
2021/06/08 10:09:17;;;;;;;1.50;0.90;;;;;;;;;;5040497;28;20095;-82
2021/06/08 10:12:09;;;;;;;1.70;1.58;;;;;;;;;;5047101;28;20057;-82
2021/06/08 10:14:48;;;;;;;2.45;1.38;;;;;;;;;;5018038;28;20056;-82
2021/06/08 10:17:30;;;;;;;3.20;1.00;;;;;;;;;;5024762;28;20639;-82
2021/06/08 10:20:23;;;;;;;2.10;1.10;;;;;;;;;;5010626;28;20056;-82
2021/06/08 10:22:56;;;;;;;2.70;1.35;;;;;;;;;;5031580;28;20041;-82
2021/06/08 10:25:44;;;;;;;1.65;1.27;;;;;;;;;;5049018;28;20037;-82
2021/06/08 10:28:12;;;;;;;1.45;1.10;;;;;;;;;;5053206;28;20465;-82
2021/06/08 10:30:40;;;;;;;1.77;1.67;;;;;;;;;;5034472;28;20514;-82
2021/06/08 10:33:25;;;;;;;1.27;1.00;;;;;;;;;;5043719;28;20434;-82
2021/06/08 10:36:12;;;;;;;1.27;1.27;;;;;;;;;;5012687;28;20085;-82
2021/06/08 10:38:40;;;;;;;2.47;1.10;;;;;;;;;;5010093;28;20052;-82
2021/06/08 10:41:08;;;;;;;1.25;1.15;;;;;;;;;;5024585;28;20057;-82
2021/06/08 10:43:36;;;;;;;5.00;1.60;;;;;;;;;;5025559;28;20065;-82
2021/06/08 10:46:13;;;;;;;2.08;1.20;;;;;;;;;;5009556;28;20149;-82
2021/06/08 10:48:48;;;;;;;4.88;1.92;;;;;;;;;;5000327;28;20474;-83
2021/06/08 10:51:18;;;;;;;4.05;1.30;;;;;;;;;;5038815;28;20123;-83
2021/06/08 10:53:46;;;;;;;3.90;1.30;;;;;;;;;;5023912;28;20576;-83
2021/06/08 10:56:28;;;;;;;2.22;1.60;;;;;;;;;;5017165;28;20057;-83
2021/06/08 10:58:59;;;;;;;14.70;3.83;;;;;;;;;;5024961;28;20049;-83
2021/06/08 11:01:29;;;;;;;5.57;2.25;;;;;;;;;;5007576;28;20058;-85
2021/06/08 11:03:57;;;;;;;5.68;2.05;;;;;;;;;;5014805;28;20053;-83
2021/06/08 11:06:50;;;;;;;2.70;1.58;;;;;;;;;;5043104;23;20042;-55
2021/06/08 11:09:29;;;;;;;1.95;1.10;;;;;;;;;;5032550;28;20053;-58
2021/06/08 11:12:08;;;;;;;1.90;1.80;;;;;;;;;;5032357;28;20037;-57
2021/06/08 11:14:54;;;;;;;2.40;1.50;;;;;;;;;;5028952;28;20079;-56
2021/06/08 11:17:38;;;;;;;2.13;2.03;;;;;;;;;;4999736;28;20132;-56
2021/06/08 11:20:18;;;;;;;3.25;1.70;;;;;;;;;;5010963;28;20030;-57
2021/06/08 11:22:49;;;;;;;1.83;1.73;;;;;;;;;;5013691;28;20038;-57
2021/06/08 11:25:41;;;;;;;3.58;1.92;;;;;;;;;;5009844;28;20042;-56
2021/06/08 11:28:08;;;;;;;2.38;1.58;;;;;;;;;;5023978;28;20070;-56
2021/06/08 11:30:38;;;;;;;2.13;1.60;;;;;;;;;;5006011;28;20038;-56
2021/06/08 11:33:08;;;;;;;4.70;1.50;;;;;;;;;;5004757;28;20052;-56
2021/06/08 11:35:42;;;;;;;1.83;1.73;;;;;;;;;;5006562;28;20418;-57
2021/06/08 11:38:09;;;;;;;1.90;1.80;;;;;;;;;;5011829;28;20052;-57
2021/06/08 11:40:44;;;;;;;7.15;2.10;;;;;;;;;;5013217;28;20042;-55
2021/06/08 11:43:11;;;;;;;2.65;1.50;;;;;;;;;;5011391;28;20033;-56
2021/06/08 11:45:42;;;;;;;1.70;1.67;;;;;;;;;;5012241;28;20112;-56
2021/06/08 11:48:29;;;;;;;3.80;1.40;;;;;;;;;;5012440;28;20546;-54
2021/06/08 11:51:00;;;;;;;2.35;1.90;;;;;;;;;;5006157;28;20052;-55
2021/06/08 11:53:27;;;;;;;1.83;1.60;;;;;;;;;;5012542;28;20041;-55
2021/06/08 11:56:04;;;;;;;8.40;1.70;;;;;;;;;;5005264;28;20463;-55
2021/06/08 11:58:35;;;;;;;2.95;2.38;;;;;;;;;;5002344;28;20026;-55
2021/06/08 12:01:04;;;;;;;3.97;2.55;;;;;;;;;;5009922;28;20050;-54
2021/06/08 12:03:35;;;;;;;5.03;2.30;;;;;;;;;;5007462;28;20034;-55
2021/06/08 12:06:02;;;;;;;3.40;1.48;;;;;;;;;;5005525;28;20050;-54
2021/06/08 12:08:31;;;;;;;2.47;2.28;;;;;;;;;;5008902;28;20042;-53
2021/06/08 12:11:18;;;;;;;3.42;1.55;;;;;;;;;;5011286;28;20069;-54
2021/06/08 12:13:46;;;;;;;1.80;1.40;;;;;;;;;;4994405;28;20034;-54
2021/06/08 12:16:16;;;;;;;5.32;2.45;;;;;;;;;;5009942;28;20568;-53
2021/06/08 12:18:47;;;;;;;4.78;1.60;;;;;;;;;;5007662;28;20104;-54
2021/06/08 12:21:18;;;;;;;4.88;2.22;;;;;;;;;;5000553;28;20466;-54
2021/06/08 12:23:46;;;;;;;4.95;3.10;;;;;;;;;;5006365;28;20057;-56
2021/06/08 12:26:24;;;;;;;4.25;3.88;;;;;;;;;;4992917;28;20042;-56
2021/06/08 12:29:10;;;;;;;4.05;3.50;;;;;;;;;;5009453;28;20466;-56
2021/06/08 12:31:37;;;;;;;3.92;2.15;;;;;;;;;;5004589;28;20101;-56
2021/06/08 12:34:11;;;;;;;5.05;2.13;;;;;;;;;;4994972;28;20173;-56
2021/06/08 12:36:44;;;;;;;1.02;1.02;;;;;;;;;;5007398;28;20042;-56
2021/06/08 12:39:27;;;;;;;2.83;1.10;;;;;;;;;;5001366;28;20453;-56
2021/06/08 12:42:08;;;;;;;1.88;1.20;;;;;;;;;;4991829;28;20498;-56
2021/06/08 12:44:36;;;;;;;1.83;1.10;;;;;;;;;;5009405;28;20057;-56
2021/06/08 12:47:03;;;;;;;3.35;1.33;;;;;;;;;;5008886;28;20510;-56
2021/06/08 12:49:37;;;;;;;1.85;1.02;;;;;;;;;;5009382;28;20046;-55
2021/06/08 12:52:08;;;;;;;1.92;1.20;;;;;;;;;;5008695;28;20060;-55
2021/06/08 12:54:38;;;;;;;1.60;1.35;;;;;;;;;;4995428;28;20093;-58
2021/06/08 12:57:25;;;;;;;1.50;1.50;;;;;;;;;;5021519;28;20050;-56
2021/06/08 12:59:54;;;;;;;1.55;1.45;;;;;;;;;;5009757;28;20457;-55
2021/06/08 13:02:21;;;;;;;1.20;1.20;;;;;;;;;;5003685;28;20042;-56
2021/06/08 13:04:49;;;;;;;1.40;1.40;;;;;;;;;;4998569;28;20086;-56
2021/06/08 13:07:22;;;;;;;5.00;1.83;;;;;;;;;;5005306;28;20038;-57
2021/06/08 13:09:56;;;;;;;1.40;1.40;;;;;;;;;;5009300;28;20067;-57
2021/06/08 13:12:24;;;;;;;4.15;1.70;;;;;;;;;;5009131;28;20034;-56
2021/06/08 13:15:05;;;;;;;2.97;1.42;;;;;;;;;;5009951;28;20080;-56
2021/06/08 13:17:33;;;;;;;2.08;1.30;;;;;;;;;;5011524;28;20461;-56
2021/06/08 13:20:00;;;;;;;1.95;1.10;;;;;;;;;;5007940;28;20108;-56
2021/06/08 13:22:28;;;;;;;2.47;1.58;;;;;;;;;;5003255;28;20038;-57
2021/06/08 13:24:56;;;;;;;1.10;1.10;;;;;;;;;;5010569;28;20034;-56
2021/06/08 13:27:29;;;;;;;1.55;1.45;;;;;;;;;;5006438;28;20054;-56
2021/06/08 13:29:57;;;;;;;3.45;1.38;;;;;;;;;;5011299;28;20387;-56
2021/06/08 13:32:26;;;;;;;2.35;1.48;;;;;;;;;;5008299;28;20062;-56
2021/06/08 13:35:13;;;;;;;2.20;1.40;;;;;;;;;;5008577;28;20036;-55
2021/06/08 13:37:44;;;;;;;6.55;2.63;;;;;;;;;;5005791;28;20038;-56
2021/06/08 13:40:20;;;;;;;2.67;2.45;;;;;;;;;;5006566;28;20088;-56
2021/06/08 13:43:00;;;;;;;3.28;2.38;;;;;;;;;;4996297;28;20046;-56
2021/06/08 13:45:30;;;;;;;2.08;1.80;;;;;;;;;;5008560;28;20433;-57
2021/06/08 13:48:14;;;;;;;11.65;1.88;;;;;;;;;;5007146;28;20092;-57
2021/06/08 13:50:41;;;;;;;4.75;2.17;;;;;;;;;;5005458;28;20026;-57
2021/06/08 13:53:22;;;;;;;3.25;2.70;;;;;;;;;;5009022;28;20122;-56
2021/06/08 13:56:02;;;;;;;2.83;2.63;;;;;;;;;;5003133;28;20046;-56
2021/06/08 14:01:30;;;;;;;2.67;2.53;;;;;;;;;;5021932;28;20053;-55
2021/06/08 14:04:12;;;;;;;2.20;1.93;;;;;;;;;;5009294;28;20045;-56
2021/06/08 14:06:47;;;;;;;1.90;1.90;;;;;;;;;;4990447;28;20042;-56
2021/06/08 14:09:16;;;;;;;1.70;1.70;;;;;;;;;;5002489;28;20030;-56
2021/06/08 14:11:54;;;;;;;4.63;1.67;;;;;;;;;;4996843;28;20046;-57
2021/06/08 14:14:25;;;;;;;2.45;2.15;;;;;;;;;;5006152;28;20053;-57
2021/06/08 14:16:52;;;;;;;3.72;2.70;;;;;;;;;;5003940;28;20130;-57
2021/06/08 14:19:19;;;;;;;2.35;2.25;;;;;;;;;;5008652;28;20672;-58
2021/06/08 14:21:49;;;;;;;1.80;1.80;;;;;;;;;;5009986;28;20732;-57
2021/06/08 14:24:18;;;;;;;2.10;2.08;;;;;;;;;;5003567;28;20474;-57
2021/06/08 14:26:46;;;;;;;2.10;2.00;;;;;;;;;;4992413;28;20050;-56
2021/06/08 14:29:18;;;;;;;3.30;2.03;;;;;;;;;;5010195;28;20104;-57
2021/06/08 14:31:45;;;;;;;5.13;2.25;;;;;;;;;;5006201;28;20048;-56
2021/06/08 14:34:12;;;;;;;3.00;2.03;;;;;;;;;;5011753;28;20726;-56
2021/06/08 14:36:39;;;;;;;2.30;2.15;;;;;;;;;;5005927;28;20049;-56
2021/06/08 14:39:07;;;;;;;2.58;2.45;;;;;;;;;;5004280;28;20034;-57
2021/06/08 14:41:34;;;;;;;2.10;1.83;;;;;;;;;;5014771;28;20038;-56
2021/06/08 14:44:03;;;;;;;1.88;1.77;;;;;;;;;;4977653;28;20057;-57
2021/06/08 14:46:36;;;;;;;1.30;1.30;;;;;;;;;;4997350;28;20104;-56
2021/06/08 14:49:04;;;;;;;4.07;1.83;;;;;;;;;;5011503;28;20509;-56
2021/06/08 14:51:31;;;;;;;3.80;1.38;;;;;;;;;;5011397;28;20469;-57
2021/06/08 14:53:58;;;;;;;1.38;1.27;;;;;;;;;;5011428;28;20043;-57
2021/06/08 14:56:25;;;;;;;2.55;1.10;;;;;;;;;;5006311;28;20382;-58
2021/06/08 14:58:51;;;;;;;1.10;1.10;;;;;;;;;;4996880;28;20425;-58
2021/06/08 15:01:19;;;;;;;1.38;1.20;;;;;;;;;;5013069;28;20050;-57
2021/06/08 15:03:47;;;;;;;1.88;1.15;;;;;;;;;;5011478;28;20108;-57
2021/06/08 15:06:13;;;;;;;2.38;1.00;;;;;;;;;;5014602;28;20058;-57
2021/06/08 15:08:40;;;;;;;1.20;1.10;;;;;;;;;;5011668;28;20414;-56
2021/06/08 15:11:08;;;;;;;5.72;1.52;;;;;;;;;;5012284;28;24450;-58